Flight Track Log - Related Links

Times and Time Zones

All times are in EDT time to prevent confusion due to time zone crossing. See the TCF6008 flight status page for this flight to view local times or setup timezone preferences in your user account.

Time Position Orientation Groundspeed Altitude Reporting Facility
EDT Latitude Longitude Course Direction KTS MPH feet Rate Location/Type
Tue 02:50:27 PM 40.7333 -73.8167 30° Northeast 203 234 2,500  Level New York TRACON
Tue 02:51:27 PM 40.8000 -73.7667 30° Northeast 245 282 4,900 2,448 Climbing New York TRACON
Tue 02:52:32 PM 40.8667 -73.8167 330° Northwest 266 306 7,600 2,714 Climbing New York TRACON
Tue 02:53:33 PM 40.8833 -73.9167 282° West 274 315 10,600 2,380 Climbing New York TRACON
Tue 02:54:33 PM 40.8667 -74.0167 258° West 319 367 12,400 1,468 Climbing New York TRACON
Tue 02:56:41 PM 40.7519 -74.2583 238° Southwest 358 412 15,200 1,290 Climbing New York Center
Tue 02:57:39 PM 40.7031 -74.3597 238° Southwest 358 412 16,400 1,729 Climbing New York Center
Tue 02:58:39 PM 40.6344 -74.4847 234° Southwest 378 435 18,600 2,182 Climbing New York Center
Tue 02:59:40 PM 40.5792 -74.5856 234° Southwest 378 435 20,800 2,100 Climbing New York Center
Tue 03:00:39 PM 40.5150 -74.6967 233° Southwest 383 441 22,800 1,983 Climbing New York Center
Tue 03:01:41 PM 40.4483 -74.8183 234° Southwest 396 456 24,800 1,770 Climbing New York Center
Tue 03:02:41 PM 40.3817 -74.9369 234° Southwest 406 467 26,400 1,627 Climbing New York Center
Tue 03:03:39 PM 40.3106 -75.0633 234° Southwest 419 482 28,000 1,462 Climbing New York Center
Tue 03:04:40 PM 40.2392 -75.1894 233° Southwest 427 491 29,300 984 Climbing New York Center
Tue 03:05:41 PM 40.1675 -75.3181 234° Southwest 437 503 30,000 347 Climbing New York Center
Tue 03:06:41 PM 40.0856 -75.4456 230° Southwest 447 514 30,000  Level New York Center
Tue 03:07:39 PM 39.9994 -75.5672 227° Southwest 458 527 30,000  Level New York Center
Tue 03:08:39 PM 39.9131 -75.6858 227° Southwest 463 533 30,000  Level New York Center
Tue 03:09:40 PM 39.8328 -75.8125 230° Southwest 463 533 30,000  Level New York Center
Tue 03:10:40 PM 39.7500 -75.9389 230° Southwest 463 533 30,000  Level New York Center
Tue 03:12:58 PM 39.5639 -76.2375 231° Southwest 464 534 30,000  Level Washington Center
Tue 03:13:59 PM 39.4797 -76.3633 229° Southwest 464 534 30,000  Level Washington Center
Tue 03:15:00 PM 39.3997 -76.4886 230° Southwest 464 534 30,000  Level Washington Center
Tue 03:16:00 PM 39.3133 -76.6164 229° Southwest 469 540 30,000  Level Washington Center
Tue 03:16:59 PM 39.2350 -76.7411 231° Southwest 469 540 30,000  Level Washington Center
Tue 03:17:59 PM 39.1525 -76.8711 231° Southwest 469 540 30,000  Level Washington Center
Tue 03:19:00 PM 39.0742 -76.9925 230° Southwest 464 534 30,000  Level Washington Center
Tue 03:19:58 PM 38.9808 -77.1083 224° Southwest 464 534 30,000  Level Washington Center
Tue 03:20:59 PM 38.8836 -77.2131 220° Southwest 464 534 30,000  Level Washington Center
Tue 03:22:00 PM 38.7864 -77.3200 221° Southwest 464 534 30,000  Level Washington Center
Tue 03:22:58 PM 38.6889 -77.4269 221° Southwest 464 534 30,000  Level Washington Center
Tue 03:23:59 PM 38.5892 -77.5358 220° Southwest 464 534 30,000  Level Washington Center
Tue 03:24:59 PM 38.4914 -77.6422 220° Southwest 464 534 30,000  Level Washington Center
Tue 03:26:00 PM 38.3936 -77.7481 220° Southwest 464 534 30,000  Level Washington Center
Tue 03:26:58 PM 38.2958 -77.8564 221° Southwest 464 534 30,000  Level Washington Center
Tue 03:27:59 PM 38.1958 -77.9644 220° Southwest 464 534 30,000  Level Washington Center
Tue 03:29:00 PM 38.0850 -78.0794 219° Southwest 464 534 30,000  Level Washington Center
Tue 03:29:58 PM 37.9931 -78.1872 223° Southwest 464 534 30,000 -706 Level Washington Center
Tue 03:30:59 PM 37.9067 -78.3131 229° Southwest 464 534 28,600 -1,736 Descending Washington Center
Tue 03:31:59 PM 37.8333 -78.4208 229° Southwest 464 534 26,500 -2,033 Descending Washington Center
Tue 03:33:00 PM 37.7533 -78.5336 228° Southwest 453 521 24,500 -1,664 Descending Washington Center
Tue 03:33:58 PM 37.6756 -78.6458 229° Southwest 438 504 23,200 -1,169 Descending Washington Center
Tue 03:34:58 PM 37.5978 -78.7528 227° Southwest 426 490 22,200 -595 Descending Washington Center
Tue 03:35:59 PM 37.5131 -78.8750 229° Southwest 426 490 22,000 -98 Descending Washington Center
Tue 03:37:00 PM 37.4372 -78.9817 228° Southwest 426 490 22,000  Level Washington Center
Tue 03:37:58 PM 37.3589 -79.0906 228° Southwest 426 490 22,000 -101 Level Washington Center
Tue 03:38:59 PM 37.2806 -79.1967 227° Southwest 426 490 21,800 -595 Descending Washington Center
Tue 03:39:59 PM 37.2042 -79.3078 229° Southwest 426 490 20,800 -1,109 Descending Washington Center
Tue 03:40:58 PM 37.1297 -79.4189 230° Southwest 426 490 19,600 -1,250 Descending Washington Center
Tue 03:41:59 PM 37.0683 -79.5147 231° Southwest 420 483 18,300 -1,240 Descending Washington Center
Tue 03:42:59 PM 36.9981 -79.6203 230° Southwest 409 471 17,100 -1,200 Descending Washington Center
Tue 03:44:00 PM 36.9199 -79.7196 229° Southwest  Level FlightAware Approximate
Tue 03:51:00 PM 36.2654 -79.9832 175° South  Level FlightAware Approximate
Tue 03:52:00 PM 36.1563 -79.9723 175° South  Level FlightAware Approximate
Tue 03:53:00 PM 36.1013 -79.9411 180° South  Level Estimated
Tue 03:54:00 PM 36.1000 -79.9333 15° North  Level FlightAware Approximate
Tue 03:55:00 PM 36.1013 -79.9411 15° North  Level Estimated
Tue 03:56:00 PM 36.1000 -79.9333 15° North  Level FlightAware Approximate
Tue 03:57:00 PM 36.1013 -79.9411 15° North  Level Estimated
Tue 03:58:00 PM 36.1000 -79.9333 15° North  Level FlightAware Approximate

Login

Don't have an account? Register now (free) for customized features, flight alerts, and more!